Time;durP1;ratioP1;P1;durP2;ratioP2;P2;SDS_P1;SDS_P2;PMS_P1;PMS_P2;Temp;Humidity;BMP_temperature;BMP_pressure;BME280_temperature;BME280_humidity;BME280_pressure;Samples;Min_cycle;Max_cycle;Signal;HPM_P1;HPM_P2
2024/01/21 00:01:01;;;;;;;9.60;5.50;;;;;;;;;;5105535;28;20020;-73
2024/01/21 00:03:26;;;;;;;11.00;5.93;;;;;;;;;;5101933;28;20016;-73
2024/01/21 00:05:51;;;;;;;10.67;5.70;;;;;;;;;;5108060;28;20277;-73
2024/01/21 00:08:16;;;;;;;9.93;5.80;;;;;;;;;;5101244;28;20349;-73
2024/01/21 00:10:42;;;;;;;8.77;5.60;;;;;;;;;;5108127;28;20763;-73
2024/01/21 00:13:07;;;;;;;10.65;6.05;;;;;;;;;;5102026;28;20297;-73
2024/01/21 00:15:32;;;;;;;9.25;5.55;;;;;;;;;;5105009;28;20460;-73
2024/01/21 00:17:57;;;;;;;9.00;5.78;;;;;;;;;;5102594;28;20471;-73
2024/01/21 00:20:22;;;;;;;10.67;5.80;;;;;;;;;;5104994;28;20020;-73
2024/01/21 00:22:48;;;;;;;9.13;6.03;;;;;;;;;;5103817;28;20273;-73
2024/01/21 00:25:13;;;;;;;9.93;5.75;;;;;;;;;;5104572;28;20348;-73
2024/01/21 00:27:38;;;;;;;10.38;6.18;;;;;;;;;;5104845;28;20028;-73
2024/01/21 00:30:04;;;;;;;10.80;6.32;;;;;;;;;;5101909;28;20110;-73
2024/01/21 00:32:29;;;;;;;11.77;6.30;;;;;;;;;;5104809;28;20030;-73
2024/01/21 00:34:54;;;;;;;11.15;6.03;;;;;;;;;;5104021;28;20466;-73
2024/01/21 00:37:19;;;;;;;10.63;6.03;;;;;;;;;;5102773;28;20443;-73
2024/01/21 00:39:45;;;;;;;10.80;6.07;;;;;;;;;;5104301;28;20288;-73
2024/01/21 00:42:10;;;;;;;11.00;6.55;;;;;;;;;;5102789;28;20270;-73
2024/01/21 00:44:36;;;;;;;9.83;6.07;;;;;;;;;;5104120;28;20523;-73
2024/01/21 00:47:01;;;;;;;12.32;6.50;;;;;;;;;;5104210;28;20297;-73
2024/01/21 00:49:27;;;;;;;11.20;6.57;;;;;;;;;;5100713;28;20020;-73
2024/01/21 00:51:52;;;;;;;10.88;6.85;;;;;;;;;;5104092;28;20027;-73
2024/01/21 00:54:17;;;;;;;12.60;6.60;;;;;;;;;;5102353;28;20098;-73
2024/01/21 00:56:43;;;;;;;12.87;6.87;;;;;;;;;;5103054;28;20224;-73
2024/01/21 00:59:08;;;;;;;12.07;6.33;;;;;;;;;;5104075;28;20768;-73
2024/01/21 01:01:37;;;;;;;11.67;6.43;;;;;;;;;;5101827;28;20270;-73
2024/01/21 01:04:03;;;;;;;12.10;6.55;;;;;;;;;;5103650;28;20265;-73
2024/01/21 01:06:28;;;;;;;10.77;7.25;;;;;;;;;;5102517;28;20024;-73
2024/01/21 01:08:53;;;;;;;11.63;7.27;;;;;;;;;;5103075;28;20496;-73
2024/01/21 01:11:20;;;;;;;11.90;7.10;;;;;;;;;;5104244;28;20274;-73
2024/01/21 01:13:45;;;;;;;12.23;7.50;;;;;;;;;;5101533;28;20274;-73
2024/01/21 01:16:11;;;;;;;13.38;7.00;;;;;;;;;;5106805;28;20034;-73
2024/01/21 01:18:36;;;;;;;12.60;7.27;;;;;;;;;;5100449;28;20357;-73
2024/01/21 01:21:01;;;;;;;11.70;7.43;;;;;;;;;;5107225;28;20257;-73
2024/01/21 01:23:26;;;;;;;12.30;6.83;;;;;;;;;;5104879;28;21039;-73
2024/01/21 01:25:51;;;;;;;13.67;7.27;;;;;;;;;;5111910;28;20307;-73
2024/01/21 01:28:16;;;;;;;11.87;7.23;;;;;;;;;;5108422;28;20946;-73
2024/01/21 01:30:43;;;;;;;9.88;7.03;;;;;;;;;;5109815;28;20262;-73
2024/01/21 01:33:08;;;;;;;12.13;7.13;;;;;;;;;;5105983;28;20051;-73
2024/01/21 01:35:33;;;;;;;12.57;7.87;;;;;;;;;;5108213;28;20054;-73
2024/01/21 01:37:58;;;;;;;10.33;7.43;;;;;;;;;;5107769;28;20330;-73
2024/01/21 01:40:23;;;;;;;12.68;7.43;;;;;;;;;;5106152;28;20273;-73
2024/01/21 01:42:58;;;;;;;13.13;7.30;;;;;;;;;;5102375;28;20055;-73
2024/01/21 01:45:23;;;;;;;12.75;7.30;;;;;;;;;;5110757;28;20364;-73
2024/01/21 01:47:48;;;;;;;12.65;6.57;;;;;;;;;;5103821;28;20114;-73
2024/01/21 01:50:13;;;;;;;14.90;6.63;;;;;;;;;;5110446;28;20023;-73
2024/01/21 01:52:39;;;;;;;11.80;7.20;;;;;;;;;;5104650;28;20035;-73
2024/01/21 01:55:05;;;;;;;10.73;6.35;;;;;;;;;;5108020;28;20587;-73
2024/01/21 01:57:30;;;;;;;10.65;6.68;;;;;;;;;;5106597;28;20043;-73
2024/01/21 01:59:55;;;;;;;11.13;6.03;;;;;;;;;;5104726;28;20068;-73
2024/01/21 02:02:21;;;;;;;10.07;6.22;;;;;;;;;;5107474;28;20100;-73
2024/01/21 02:04:46;;;;;;;10.73;6.10;;;;;;;;;;5104796;28;20062;-73
2024/01/21 02:07:11;;;;;;;9.98;5.60;;;;;;;;;;5106709;28;20085;-73
2024/01/21 02:09:37;;;;;;;10.48;6.28;;;;;;;;;;5105352;28;20019;-73
2024/01/21 02:12:02;;;;;;;10.40;5.75;;;;;;;;;;5107102;28;20028;-73
2024/01/21 02:14:27;;;;;;;8.68;5.60;;;;;;;;;;5107000;28;20011;-73
2024/01/21 02:16:52;;;;;;;12.07;5.90;;;;;;;;;;5104982;28;20020;-73
2024/01/21 02:19:26;;;;;;;7.60;5.13;;;;;;;;;;5107375;28;20300;-73
2024/01/21 02:21:51;;;;;;;;;;;;;;;;;;5104421;28;20298;-73
2024/01/21 02:24:16;;;;;;;11.57;4.75;;;;;;;;;;5107045;28;19977;-73
2024/01/21 02:26:41;;;;;;;8.97;5.03;;;;;;;;;;5106959;28;20028;-73
2024/01/21 02:29:07;;;;;;;7.90;4.97;;;;;;;;;;5108386;28;20322;-73
2024/01/21 02:31:32;;;;;;;6.85;4.60;;;;;;;;;;5110239;28;20026;-73
2024/01/21 02:33:57;;;;;;;8.53;4.70;;;;;;;;;;5099428;28;20024;-73
2024/01/21 02:36:22;;;;;;;9.43;4.60;;;;;;;;;;5109641;28;20272;-73
2024/01/21 02:38:47;;;;;;;5.82;4.03;;;;;;;;;;5102118;28;20761;-73
2024/01/21 02:41:12;;;;;;;7.47;4.13;;;;;;;;;;5106603;28;20464;-73
2024/01/21 02:43:38;;;;;;;7.93;4.50;;;;;;;;;;5106155;28;20269;-73
2024/01/21 02:46:03;;;;;;;9.30;4.45;;;;;;;;;;5107300;28;20012;-73
2024/01/21 02:48:28;;;;;;;7.37;4.60;;;;;;;;;;5105123;28;20024;-73
2024/01/21 02:50:53;;;;;;;7.90;4.82;;;;;;;;;;5105543;28;20261;-73
2024/01/21 02:53:18;;;;;;;7.03;4.40;;;;;;;;;;5104473;28;20024;-73
2024/01/21 02:55:44;;;;;;;9.17;4.33;;;;;;;;;;5106077;28;20813;-73
2024/01/21 02:58:09;;;;;;;6.50;3.80;;;;;;;;;;5105559;28;20282;-73
2024/01/21 03:00:34;;;;;;;7.17;4.03;;;;;;;;;;5104648;28;20806;-73
2024/01/21 03:02:59;;;;;;;6.65;3.70;;;;;;;;;;5107279;28;20341;-73
2024/01/21 03:05:25;;;;;;;5.83;4.20;;;;;;;;;;5103307;28;20050;-73
2024/01/21 03:07:50;;;;;;;5.03;3.55;;;;;;;;;;5109785;28;20768;-73
2024/01/21 03:10:15;;;;;;;6.90;4.43;;;;;;;;;;5102164;28;20494;-73
2024/01/21 03:12:40;;;;;;;6.07;3.50;;;;;;;;;;5110095;28;20024;-73
2024/01/21 03:15:05;;;;;;;7.77;4.37;;;;;;;;;;5102574;28;20262;-73
2024/01/21 03:17:31;;;;;;;5.32;3.50;;;;;;;;;;5107656;28;20277;-73
2024/01/21 03:19:56;;;;;;;6.87;3.80;;;;;;;;;;5104497;28;20023;-73
2024/01/21 03:22:21;;;;;;;8.10;4.03;;;;;;;;;;5106318;28;20266;-73
2024/01/21 03:24:46;;;;;;;6.30;4.05;;;;;;;;;;5105177;28;20018;-73
2024/01/21 03:27:13;;;;;;;8.10;3.88;;;;;;;;;;5104839;28;20110;-73
2024/01/21 03:29:39;;;;;;;6.43;4.10;;;;;;;;;;5106176;28;20024;-73
2024/01/21 03:32:04;;;;;;;6.95;4.07;;;;;;;;;;5103654;28;20024;-73
2024/01/21 03:34:29;;;;;;;7.88;3.90;;;;;;;;;;5106060;28;20016;-73
2024/01/21 03:36:54;;;;;;;8.95;4.38;;;;;;;;;;5105680;28;20022;-73
2024/01/21 03:39:19;;;;;;;6.90;4.07;;;;;;;;;;5101779;28;20024;-73
2024/01/21 03:41:45;;;;;;;5.90;4.03;;;;;;;;;;5105608;28;20277;-73
2024/01/21 03:44:10;;;;;;;7.07;4.30;;;;;;;;;;5103351;28;20273;-73
2024/01/21 03:46:35;;;;;;;8.15;3.90;;;;;;;;;;5104957;28;20082;-73
2024/01/21 03:49:00;;;;;;;8.03;5.10;;;;;;;;;;5105408;28;20032;-73
2024/01/21 03:51:26;;;;;;;12.13;7.78;;;;;;;;;;5102925;28;20821;-73
2024/01/21 03:53:51;;;;;;;12.07;7.93;;;;;;;;;;5104449;28;20027;-73
2024/01/21 03:56:17;;;;;;;18.13;8.97;;;;;;;;;;5104058;28;20274;-73
2024/01/21 03:58:43;;;;;;;13.35;8.95;;;;;;;;;;5104238;28;20286;-73
2024/01/21 04:01:08;;;;;;;10.40;7.00;;;;;;;;;;5105175;28;20042;-73
2024/01/21 04:03:33;;;;;;;11.33;7.17;;;;;;;;;;5102805;28;20270;-73
2024/01/21 04:05:58;;;;;;;10.23;6.63;;;;;;;;;;5108013;28;20611;-73
2024/01/21 04:08:23;;;;;;;9.95;5.90;;;;;;;;;;5103593;28;20301;-73
2024/01/21 04:10:50;;;;;;;9.48;5.90;;;;;;;;;;5103639;28;20016;-73
2024/01/21 04:13:15;;;;;;;7.43;4.60;;;;;;;;;;5102398;28;20098;-73
2024/01/21 04:15:40;;;;;;;7.03;4.82;;;;;;;;;;5103519;28;20095;-73
2024/01/21 04:18:06;;;;;;;6.93;3.97;;;;;;;;;;5101563;28;20020;-73
2024/01/21 04:20:31;;;;;;;7.28;4.00;;;;;;;;;;5101536;28;20851;-73
2024/01/21 04:22:56;;;;;;;6.87;4.00;;;;;;;;;;5104320;28;20072;-73
2024/01/21 04:25:21;;;;;;;7.40;3.73;;;;;;;;;;5102956;28;20274;-73
2024/01/21 04:27:46;;;;;;;6.50;3.73;;;;;;;;;;5108004;28;20362;-73
2024/01/21 04:30:12;;;;;;;7.20;4.67;;;;;;;;;;5101543;28;20301;-73
2024/01/21 04:32:37;;;;;;;7.97;4.00;;;;;;;;;;5108775;28;20338;-73
2024/01/21 04:35:02;;;;;;;7.70;4.32;;;;;;;;;;5100332;28;20036;-73
2024/01/21 04:37:27;;;;;;;7.55;3.97;;;;;;;;;;5103990;28;20489;-73
2024/01/21 04:39:53;;;;;;;8.75;4.28;;;;;;;;;;5102100;28;20016;-73
2024/01/21 04:42:18;;;;;;;7.57;4.32;;;;;;;;;;5105849;28;20020;-73
2024/01/21 04:44:43;;;;;;;8.27;4.23;;;;;;;;;;5101092;28;20055;-73
2024/01/21 04:47:08;;;;;;;7.70;4.20;;;;;;;;;;5107700;28;20369;-73
2024/01/21 04:49:33;;;;;;;9.97;4.67;;;;;;;;;;5100326;28;20665;-73
2024/01/21 04:51:59;;;;;;;8.67;4.80;;;;;;;;;;5107637;28;20403;-73
2024/01/21 04:54:25;;;;;;;6.60;4.13;;;;;;;;;;5104148;28;20289;-73
2024/01/21 04:56:50;;;;;;;8.68;4.72;;;;;;;;;;5110074;28;20055;-73
2024/01/21 04:59:15;;;;;;;8.50;5.00;;;;;;;;;;5103315;28;20130;-73
2024/01/21 05:01:40;;;;;;;8.15;5.20;;;;;;;;;;5100516;28;20745;-73
2024/01/21 05:04:05;;;;;;;10.93;5.47;;;;;;;;;;5099953;28;20027;-73
2024/01/21 05:06:31;;;;;;;11.15;6.78;;;;;;;;;;5103875;28;20042;-73
2024/01/21 05:08:56;;;;;;;12.35;7.03;;;;;;;;;;5103814;28;20056;-72
2024/01/21 05:11:21;;;;;;;10.55;6.30;;;;;;;;;;5100539;28;20023;-73
2024/01/21 05:13:46;;;;;;;12.35;6.47;;;;;;;;;;5105898;28;20027;-73
2024/01/21 05:16:11;;;;;;;11.53;6.37;;;;;;;;;;5100861;28;20024;-73
2024/01/21 05:18:38;;;;;;;11.13;6.28;;;;;;;;;;5106304;28;20288;-73
2024/01/21 05:21:04;;;;;;;10.40;5.85;;;;;;;;;;5100390;28;20486;-73
2024/01/21 05:23:29;;;;;;;12.05;6.28;;;;;;;;;;5107314;28;20023;-73
2024/01/21 05:25:54;;;;;;;9.45;6.43;;;;;;;;;;5099864;28;20008;-73
2024/01/21 05:28:20;;;;;;;9.18;6.20;;;;;;;;;;5105484;28;20040;-73
2024/01/21 05:30:45;;;;;;;9.98;5.95;;;;;;;;;;5101379;28;20498;-73
2024/01/21 05:33:10;;;;;;;12.30;6.47;;;;;;;;;;5103509;28;20111;-73
2024/01/21 05:35:35;;;;;;;11.38;6.30;;;;;;;;;;5103670;28;20072;-73
2024/01/21 05:38:01;;;;;;;10.00;6.03;;;;;;;;;;5097404;28;20399;-73
2024/01/21 05:40:26;;;;;;;8.93;5.73;;;;;;;;;;5103917;28;20312;-73
2024/01/21 05:42:51;;;;;;;9.68;5.80;;;;;;;;;;5101260;28;20322;-73
2024/01/21 05:45:16;;;;;;;11.20;6.20;;;;;;;;;;5111298;28;20026;-73
2024/01/21 05:47:41;;;;;;;8.00;5.77;;;;;;;;;;5102793;28;20321;-73
2024/01/21 05:50:07;;;;;;;9.45;5.75;;;;;;;;;;5102387;28;20323;-73
2024/01/21 05:52:33;;;;;;;10.02;6.10;;;;;;;;;;5104816;28;20452;-73
2024/01/21 05:54:58;;;;;;;9.85;5.95;;;;;;;;;;5100512;28;20020;-73
2024/01/21 05:57:23;;;;;;;10.47;6.10;;;;;;;;;;5107081;28;20020;-74
2024/01/21 05:59:48;;;;;;;11.03;6.27;;;;;;;;;;5100259;28;20416;-73
2024/01/21 06:02:14;;;;;;;10.95;5.70;;;;;;;;;;5107335;28;20265;-73
2024/01/21 06:04:40;;;;;;;9.65;6.00;;;;;;;;;;5100243;28;20013;-73
2024/01/21 06:07:05;;;;;;;11.57;6.25;;;;;;;;;;5105709;28;20480;-73
2024/01/21 06:09:30;;;;;;;10.90;5.43;;;;;;;;;;5101305;28;20027;-73
2024/01/21 06:11:55;;;;;;;8.23;5.70;;;;;;;;;;5104568;28;20026;-73
2024/01/21 06:14:20;;;;;;;10.47;5.80;;;;;;;;;;5105881;28;20261;-73
2024/01/21 06:16:46;;;;;;;10.38;5.97;;;;;;;;;;5106027;28;20832;-73
2024/01/21 06:19:11;;;;;;;8.57;5.57;;;;;;;;;;5107359;28;20020;-73
2024/01/21 06:21:45;;;;;;;9.13;5.63;;;;;;;;;;5105554;28;20276;-73
2024/01/21 06:24:11;;;;;;;10.45;6.03;;;;;;;;;;5107330;28;20023;-73
2024/01/21 06:26:40;;;;;;;11.27;5.85;;;;;;;;;;5106047;28;20378;-73
2024/01/21 06:29:05;;;;;;;10.02;5.82;;;;;;;;;;5106201;28;20043;-73
2024/01/21 06:31:30;;;;;;;8.90;5.63;;;;;;;;;;5107078;28;20050;-73
2024/01/21 06:33:56;;;;;;;9.63;5.90;;;;;;;;;;5104921;28;20100;-73
2024/01/21 06:36:22;;;;;;;11.20;6.63;;;;;;;;;;5107260;28;20662;-73
2024/01/21 06:38:48;;;;;;;11.00;6.18;;;;;;;;;;5108695;28;20315;-73
2024/01/21 06:41:13;;;;;;;10.43;5.35;;;;;;;;;;5104623;28;20011;-73
2024/01/21 06:43:38;;;;;;;10.13;6.00;;;;;;;;;;5106871;28;20023;-73
2024/01/21 06:46:03;;;;;;;10.17;5.60;;;;;;;;;;5104558;28;20320;-73
2024/01/21 06:48:28;;;;;;;8.43;5.20;;;;;;;;;;5105914;28;20299;-73
2024/01/21 06:50:54;;;;;;;8.90;5.20;;;;;;;;;;5104951;28;20274;-73
2024/01/21 06:53:19;;;;;;;9.60;5.43;;;;;;;;;;5106333;28;20305;-73
2024/01/21 06:55:44;;;;;;;10.85;6.22;;;;;;;;;;5105781;28;20043;-73
2024/01/21 06:58:10;;;;;;;8.73;5.80;;;;;;;;;;5104108;28;20487;-73
2024/01/21 07:00:35;;;;;;;9.40;5.60;;;;;;;;;;5106843;28;20030;-73
2024/01/21 07:03:00;;;;;;;9.68;5.68;;;;;;;;;;5104820;28;20734;-73
2024/01/21 07:05:25;;;;;;;8.83;6.07;;;;;;;;;;5105315;28;20096;-73
2024/01/21 07:07:50;;;;;;;8.70;5.53;;;;;;;;;;5107990;28;20860;-73
2024/01/21 07:10:16;;;;;;;9.07;5.05;;;;;;;;;;5102649;28;20336;-73
2024/01/21 07:12:41;;;;;;;8.93;5.85;;;;;;;;;;5102689;28;20091;-73
2024/01/21 07:15:06;;;;;;;7.78;5.05;;;;;;;;;;5103221;28;20013;-73
2024/01/21 07:17:31;;;;;;;8.75;5.10;;;;;;;;;;5109273;28;20432;-73
2024/01/21 07:19:57;;;;;;;8.45;5.38;;;;;;;;;;5102451;28;20012;-73
2024/01/21 07:22:22;;;;;;;9.43;5.53;;;;;;;;;;5109582;28;20031;-73
2024/01/21 07:24:47;;;;;;;8.23;5.73;;;;;;;;;;5101543;28;20265;-73
2024/01/21 07:27:12;;;;;;;7.93;5.43;;;;;;;;;;5107736;28;20293;-73
2024/01/21 07:29:38;;;;;;;8.13;5.60;;;;;;;;;;5105576;28;20015;-73
2024/01/21 07:32:03;;;;;;;10.93;5.72;;;;;;;;;;5104584;28;20273;-73
2024/01/21 07:34:28;;;;;;;7.70;5.35;;;;;;;;;;5106259;28;20090;-73
2024/01/21 07:36:53;;;;;;;8.57;5.13;;;;;;;;;;5104531;28;20375;-72
2024/01/21 07:39:19;;;;;;;9.37;5.57;;;;;;;;;;5103736;28;20020;-73
2024/01/21 07:41:44;;;;;;;9.40;5.65;;;;;;;;;;5108286;28;20269;-73
2024/01/21 07:44:09;;;;;;;7.80;5.30;;;;;;;;;;5103306;28;20027;-73
2024/01/21 07:46:34;;;;;;;8.68;5.07;;;;;;;;;;5105793;28;20705;-73
2024/01/21 07:48:59;;;;;;;9.80;5.57;;;;;;;;;;5104135;28;20066;-73
2024/01/21 07:51:26;;;;;;;9.05;6.07;;;;;;;;;;5103823;28;20283;-73
2024/01/21 07:53:51;;;;;;;8.68;5.57;;;;;;;;;;5105422;28;20020;-73
2024/01/21 07:56:16;;;;;;;9.68;5.18;;;;;;;;;;5103403;28;20080;-73
2024/01/21 07:58:41;;;;;;;10.03;5.67;;;;;;;;;;5104378;28;20116;-73
2024/01/21 08:01:11;;;;;;;7.68;4.85;;;;;;;;;;5110351;28;20830;-73
2024/01/21 08:03:36;;;;;;;8.30;5.55;;;;;;;;;;5105309;28;20378;-73
2024/01/21 08:06:02;;;;;;;8.18;5.28;;;;;;;;;;5104291;28;20027;-73
2024/01/21 08:08:27;;;;;;;7.10;5.00;;;;;;;;;;5103652;28;20036;-73
2024/01/21 08:10:52;;;;;;;8.13;5.05;;;;;;;;;;5104926;28;20026;-73
2024/01/21 08:13:17;;;;;;;8.80;4.67;;;;;;;;;;5103341;28;20028;-72
2024/01/21 08:15:42;;;;;;;9.43;5.47;;;;;;;;;;5104467;28;20257;-73
2024/01/21 08:18:07;;;;;;;8.20;4.77;;;;;;;;;;5106155;28;20357;-73
2024/01/21 08:20:33;;;;;;;11.07;5.20;;;;;;;;;;5102151;28;20675;-73
2024/01/21 08:22:59;;;;;;;7.95;5.10;;;;;;;;;;5107663;28;20289;-73
2024/01/21 08:25:24;;;;;;;8.40;5.05;;;;;;;;;;5101609;28;20045;-73
2024/01/21 08:27:49;;;;;;;9.55;5.05;;;;;;;;;;5107852;28;20088;-73
2024/01/21 08:30:14;;;;;;;10.57;5.30;;;;;;;;;;5101522;28;20024;-73
2024/01/21 08:32:39;;;;;;;9.63;5.60;;;;;;;;;;5109415;28;20276;-73
2024/01/21 08:35:05;;;;;;;7.33;4.90;;;;;;;;;;5100450;28;20016;-73
2024/01/21 08:37:30;;;;;;;7.25;4.80;;;;;;;;;;5103186;28;20615;-73
2024/01/21 08:39:55;;;;;;;9.57;5.25;;;;;;;;;;5102524;28;20024;-73
2024/01/21 08:42:20;;;;;;;7.03;4.85;;;;;;;;;;5105348;28;20023;-73
2024/01/21 08:44:45;;;;;;;7.07;5.07;;;;;;;;;;5101306;28;20379;-73
2024/01/21 08:47:11;;;;;;;7.43;4.83;;;;;;;;;;5107654;28;20028;-73
2024/01/21 08:49:36;;;;;;;7.65;5.10;;;;;;;;;;5100379;28;20274;-73
2024/01/21 08:52:01;;;;;;;7.23;5.03;;;;;;;;;;5107582;28;20028;-73
2024/01/21 08:54:26;;;;;;;8.13;4.80;;;;;;;;;;5101145;28;20289;-73
2024/01/21 08:56:52;;;;;;;7.88;5.32;;;;;;;;;;5107521;28;20749;-73
2024/01/21 08:59:17;;;;;;;10.13;5.25;;;;;;;;;;5103600;28;20055;-73
2024/01/21 09:01:42;;;;;;;7.57;5.20;;;;;;;;;;5105807;28;20522;-73
2024/01/21 09:04:09;;;;;;;10.03;6.13;;;;;;;;;;5104455;28;20281;-73
2024/01/21 09:06:35;;;;;;;10.15;5.70;;;;;;;;;;5104112;28;20269;-73
2024/01/21 09:09:00;;;;;;;8.80;5.47;;;;;;;;;;5105158;28;20027;-73
2024/01/21 09:11:26;;;;;;;8.45;5.45;;;;;;;;;;5102010;28;20016;-74
2024/01/21 09:13:51;;;;;;;7.75;4.95;;;;;;;;;;5112495;28;20038;-74
2024/01/21 09:16:17;;;;;;;10.88;5.65;;;;;;;;;;5101228;28;20016;-73
2024/01/21 09:18:42;;;;;;;8.52;5.32;;;;;;;;;;5103210;28;20016;-73
2024/01/21 09:21:07;;;;;;;9.33;5.70;;;;;;;;;;5104169;28;20046;-73
2024/01/21 09:23:32;;;;;;;10.10;5.53;;;;;;;;;;5100805;28;20284;-73
2024/01/21 09:25:57;;;;;;;8.52;5.53;;;;;;;;;;5106290;28;20063;-73
2024/01/21 09:28:23;;;;;;;8.25;5.40;;;;;;;;;;5101137;28;20157;-73
2024/01/21 09:30:49;;;;;;;11.38;5.50;;;;;;;;;;5105892;28;20042;-73
2024/01/21 09:33:14;;;;;;;9.38;5.50;;;;;;;;;;5100538;28;20031;-73
2024/01/21 09:35:39;;;;;;;7.75;5.75;;;;;;;;;;5107121;28;20016;-73
2024/01/21 09:38:04;;;;;;;8.73;5.53;;;;;;;;;;5097428;28;20478;-73
2024/01/21 09:40:29;;;;;;;9.88;5.80;;;;;;;;;;5103861;28;20261;-73
2024/01/21 09:42:55;;;;;;;10.52;5.75;;;;;;;;;;5101190;28;20119;-73
2024/01/21 09:45:21;;;;;;;9.27;5.03;;;;;;;;;;5103564;28;20018;-73
2024/01/21 09:47:47;;;;;;;8.30;5.90;;;;;;;;;;5103215;28;20102;-73
2024/01/21 09:50:14;;;;;;;8.45;5.13;;;;;;;;;;5107225;28;20024;-73
2024/01/21 09:52:39;;;;;;;8.93;5.72;;;;;;;;;;5107830;28;20031;-73
2024/01/21 09:55:05;;;;;;;10.00;5.63;;;;;;;;;;5104971;28;20038;-73
2024/01/21 09:57:30;;;;;;;9.02;5.78;;;;;;;;;;5110832;28;20103;-73
2024/01/21 09:59:55;;;;;;;8.43;5.90;;;;;;;;;;5107819;28;20466;-73
2024/01/21 10:02:22;;;;;;;8.45;5.72;;;;;;;;;;5112890;28;20042;-73
2024/01/21 10:04:48;;;;;;;8.50;5.50;;;;;;;;;;5104240;28;20016;-73
2024/01/21 10:07:13;;;;;;;7.97;5.78;;;;;;;;;;5110898;28;20470;-73
2024/01/21 10:09:39;;;;;;;12.73;6.20;;;;;;;;;;5104484;28;20015;-73
2024/01/21 10:12:04;;;;;;;8.82;6.18;;;;;;;;;;5108904;28;20277;-73
2024/01/21 10:14:31;;;;;;;10.18;6.28;;;;;;;;;;5105611;27;20024;-73
2024/01/21 10:16:56;;;;;;;10.55;6.47;;;;;;;;;;5107787;28;20745;-73
2024/01/21 10:19:24;;;;;;;10.48;5.88;;;;;;;;;;5106632;28;20019;-73
2024/01/21 10:21:50;;;;;;;10.68;5.70;;;;;;;;;;5105925;28;20428;-73
2024/01/21 10:24:21;;;;;;;8.30;5.90;;;;;;;;;;5107549;28;20080;-73
2024/01/21 10:26:47;;;;;;;10.65;6.10;;;;;;;;;;5105509;28;20282;-73
2024/01/21 10:29:12;;;;;;;9.27;5.90;;;;;;;;;;5107303;28;20030;-74
2024/01/21 10:31:37;;;;;;;9.60;6.13;;;;;;;;;;5106396;28;20486;-73
2024/01/21 10:34:02;;;;;;;8.40;5.60;;;;;;;;;;5106420;28;20361;-73
2024/01/21 10:36:31;;;;;;;9.38;5.93;;;;;;;;;;5107017;28;20315;-74
2024/01/21 10:38:58;;;;;;;9.95;5.95;;;;;;;;;;5107459;28;20494;-73
2024/01/21 10:41:29;;;;;;;10.88;6.45;;;;;;;;;;5106346;28;20047;-73
2024/01/21 10:43:56;;;;;;;7.95;5.50;;;;;;;;;;5105753;28;20031;-73
2024/01/21 10:46:23;;;;;;;9.13;5.90;;;;;;;;;;5106528;28;20094;-73
2024/01/21 10:48:51;;;;;;;8.75;5.90;;;;;;;;;;5105801;28;20031;-73
2024/01/21 10:51:18;;;;;;;9.65;5.72;;;;;;;;;;5104860;28;20471;-73
2024/01/21 10:53:44;;;;;;;9.00;5.80;;;;;;;;;;5106377;28;20024;-73
2024/01/21 10:56:10;;;;;;;11.27;6.30;;;;;;;;;;5104153;28;20020;-73
2024/01/21 10:58:35;;;;;;;9.25;6.60;;;;;;;;;;5106450;28;20051;-73
2024/01/21 11:01:02;;;;;;;10.43;5.75;;;;;;;;;;5109524;28;20138;-73
2024/01/21 11:03:29;;;;;;;8.40;6.18;;;;;;;;;;5105546;28;20115;-73
2024/01/21 11:05:59;;;;;;;8.57;5.50;;;;;;;;;;5106078;28;20463;-73
2024/01/21 11:08:25;;;;;;;8.52;5.82;;;;;;;;;;5104267;28;20035;-73
2024/01/21 11:10:51;;;;;;;10.02;5.70;;;;;;;;;;5106354;28;20102;-73
2024/01/21 11:13:35;;;;;;;11.10;6.13;;;;;;;;;;5106258;28;20070;-73
2024/01/21 11:16:00;;;;;;;9.30;5.70;;;;;;;;;;5100968;28;20382;-74
2024/01/21 11:18:25;;;;;;;8.23;6.07;;;;;;;;;;5105244;28;20020;-73
2024/01/21 11:20:59;;;;;;;8.10;5.53;;;;;;;;;;5105787;28;20270;-73
2024/01/21 11:23:24;;;;;;;9.07;5.60;;;;;;;;;;5104705;28;20266;-74
2024/01/21 11:25:51;;;;;;;9.43;5.60;;;;;;;;;;5105241;28;20077;-74
2024/01/21 11:28:29;;;;;;;9.40;5.90;;;;;;;;;;5107688;28;20281;-74
2024/01/21 11:31:02;;;;;;;9.57;5.50;;;;;;;;;;5104821;28;20058;-74
2024/01/21 11:33:27;;;;;;;8.45;5.80;;;;;;;;;;5106704;28;20467;-74
2024/01/21 11:35:53;;;;;;;8.43;5.53;;;;;;;;;;5104281;28;20055;-74
2024/01/21 11:38:18;;;;;;;8.68;5.70;;;;;;;;;;5107929;28;20019;-74
2024/01/21 11:40:44;;;;;;;8.82;5.65;;;;;;;;;;5103708;28;20382;-74
2024/01/21 11:43:09;;;;;;;9.05;5.70;;;;;;;;;;5100479;28;20375;-74
2024/01/21 11:45:34;;;;;;;8.17;5.93;;;;;;;;;;5105160;28;20016;-74
2024/01/21 11:47:59;;;;;;;8.40;6.00;;;;;;;;;;5102865;28;20629;-74
2024/01/21 11:50:24;;;;;;;8.73;6.20;;;;;;;;;;5105140;28;20269;-74
2024/01/21 11:52:50;;;;;;;7.65;5.63;;;;;;;;;;5104499;28;20301;-74
2024/01/21 11:55:21;;;;;;;10.90;5.80;;;;;;;;;;5104326;28;20012;-74
2024/01/21 11:57:46;;;;;;;8.57;5.93;;;;;;;;;;5104704;28;20282;-74
2024/01/21 12:00:13;;;;;;;9.73;5.83;;;;;;;;;;5107682;28;20035;-74
2024/01/21 12:02:38;;;;;;;9.00;6.28;;;;;;;;;;5107846;28;20804;-74
2024/01/21 12:05:04;;;;;;;9.95;5.47;;;;;;;;;;5093778;28;20091;-74
2024/01/21 12:07:29;;;;;;;8.10;5.60;;;;;;;;;;5109054;28;20039;-74
2024/01/21 12:09:54;;;;;;;9.18;5.57;;;;;;;;;;5101917;28;20046;-74
2024/01/21 12:12:19;;;;;;;8.52;6.05;;;;;;;;;;5108064;28;20106;-74
2024/01/21 12:14:45;;;;;;;9.88;6.07;;;;;;;;;;5101319;28;20024;-75
2024/01/21 12:17:10;;;;;;;9.98;5.57;;;;;;;;;;5107219;28;20034;-74
2024/01/21 12:19:35;;;;;;;11.37;5.90;;;;;;;;;;5102670;28;20015;-74
2024/01/21 12:22:00;;;;;;;8.03;5.60;;;;;;;;;;5104883;28;20059;-74
2024/01/21 12:24:26;;;;;;;9.73;5.60;;;;;;;;;;5105311;28;20273;-74
2024/01/21 12:26:53;;;;;;;7.45;5.18;;;;;;;;;;5102941;28;20301;-74
2024/01/21 12:29:19;;;;;;;8.40;5.63;;;;;;;;;;5105281;27;20106;-74
2024/01/21 12:31:45;;;;;;;8.18;5.07;;;;;;;;;;5103775;28;20081;-74
2024/01/21 12:34:10;;;;;;;8.37;5.93;;;;;;;;;;5104187;28;20011;-74
2024/01/21 12:36:36;;;;;;;7.28;5.43;;;;;;;;;;5104697;28;20727;-74
2024/01/21 12:39:04;;;;;;;8.02;6.18;;;;;;;;;;5104672;28;20043;-74
2024/01/21 12:41:29;;;;;;;8.63;5.97;;;;;;;;;;5104879;28;20035;-74
2024/01/21 12:43:55;;;;;;;9.90;5.57;;;;;;;;;;5103528;28;20024;-74
2024/01/21 12:46:21;;;;;;;10.98;5.47;;;;;;;;;;5103360;28;20478;-74
2024/01/21 12:48:46;;;;;;;7.68;5.47;;;;;;;;;;5103430;28;20042;-74
2024/01/21 12:51:12;;;;;;;7.65;5.78;;;;;;;;;;5102265;28;20087;-74
2024/01/21 12:53:38;;;;;;;7.55;5.60;;;;;;;;;;5104621;28;20045;-74
2024/01/21 12:56:03;;;;;;;9.02;5.93;;;;;;;;;;5101880;28;20023;-74
2024/01/21 12:58:28;;;;;;;9.80;5.93;;;;;;;;;;5104451;28;20074;-75
2024/01/21 13:00:53;;;;;;;8.97;5.80;;;;;;;;;;5107565;28;20467;-75
2024/01/21 13:03:19;;;;;;;8.35;5.65;;;;;;;;;;5104167;28;20347;-75
2024/01/21 13:05:46;;;;;;;9.05;5.60;;;;;;;;;;5106123;28;20043;-75
2024/01/21 13:08:11;;;;;;;8.45;5.65;;;;;;;;;;5105658;28;20035;-75
2024/01/21 13:10:38;;;;;;;9.98;6.50;;;;;;;;;;5104051;28;20012;-74
2024/01/21 13:13:04;;;;;;;10.10;6.00;;;;;;;;;;5103463;28;20537;-75
2024/01/21 13:15:29;;;;;;;10.20;6.22;;;;;;;;;;5109919;28;20024;-75
2024/01/21 13:17:54;;;;;;;8.95;6.25;;;;;;;;;;5105579;28;20016;-75
2024/01/21 13:20:19;;;;;;;8.17;5.73;;;;;;;;;;5101335;28;20016;-75
2024/01/21 13:22:44;;;;;;;7.95;5.60;;;;;;;;;;5105433;28;20688;-75
2024/01/21 13:25:10;;;;;;;8.85;5.90;;;;;;;;;;5100848;28;20020;-75
2024/01/21 13:27:43;;;;;;;11.52;5.95;;;;;;;;;;5107343;28;20046;-74
2024/01/21 13:32:53;;;;;;;8.73;6.00;;;;;;;;;;5107475;28;20039;-75
2024/01/21 13:35:18;;;;;;;7.57;5.93;;;;;;;;;;5100738;28;20016;-75
2024/01/21 13:37:44;;;;;;;9.17;5.63;;;;;;;;;;5101371;28;20028;-75
2024/01/21 13:40:10;;;;;;;10.00;5.63;;;;;;;;;;5104135;28;20294;-75
2024/01/21 13:42:35;;;;;;;8.73;5.90;;;;;;;;;;5103516;28;20103;-75
2024/01/21 13:45:00;;;;;;;8.85;6.28;;;;;;;;;;5101342;28;20111;-75
2024/01/21 13:47:26;;;;;;;10.07;6.00;;;;;;;;;;5105719;28;20039;-75
2024/01/21 13:49:51;;;;;;;8.95;5.47;;;;;;;;;;5100320;28;20065;-74
2024/01/21 13:52:16;;;;;;;10.50;6.50;;;;;;;;;;5106747;28;20039;-75
2024/01/21 13:54:41;;;;;;;10.52;6.30;;;;;;;;;;5100085;28;20345;-74
2024/01/21 13:57:07;;;;;;;11.50;6.13;;;;;;;;;;5106788;28;20023;-75
2024/01/21 13:59:33;;;;;;;11.43;6.60;;;;;;;;;;5104698;28;20428;-75
2024/01/21 14:01:58;;;;;;;10.45;6.75;;;;;;;;;;5109709;28;20040;-75
2024/01/21 14:04:23;;;;;;;9.57;6.35;;;;;;;;;;5101084;28;20026;-75
2024/01/21 14:06:49;;;;;;;10.97;5.83;;;;;;;;;;5104208;28;20034;-75
2024/01/21 14:09:14;;;;;;;7.85;5.65;;;;;;;;;;5103976;28;20817;-75
2024/01/21 14:11:40;;;;;;;11.07;5.82;;;;;;;;;;5101672;28;20026;-75
2024/01/21 14:14:05;;;;;;;9.93;5.53;;;;;;;;;;5103550;28;20015;-75
2024/01/21 14:16:30;;;;;;;9.23;6.20;;;;;;;;;;5102145;28;20467;-75
2024/01/21 14:18:55;;;;;;;7.67;5.83;;;;;;;;;;5102849;28;20265;-75
2024/01/21 14:21:21;;;;;;;9.83;6.03;;;;;;;;;;5103212;28;20328;-75
2024/01/21 14:23:46;;;;;;;11.65;6.88;;;;;;;;;;5102738;28;20274;-75
2024/01/21 14:26:14;;;;;;;10.60;7.28;;;;;;;;;;5103102;28;20526;-75
2024/01/21 14:28:41;;;;;;;12.88;6.63;;;;;;;;;;5102496;28;20111;-75
2024/01/21 14:31:08;;;;;;;10.15;6.60;;;;;;;;;;5103715;28;20080;-75